Averill, VT (05901)

4:39 AM EST on December 03, 2016 (GMT -0500)
Canaan (VTW14) | | Change Station

Elev 1319 ft 45.01 °N, 71.53 °W | Updated 3 minutes ago

Light Snow
Light Snow
32.6 °F
Feels Like 33 °F
N
0.7
Wind Variable Wind from SE
Gusts 7.5 mph

Today
High -- | Low -- °F
--% Chance of Precip.
Yesterday
High -- | Low -- °F
Precip. -- in
Pressure 29.76 in
Visibility 2.5 miles
Clouds Scattered Clouds 800 ft
Mostly Cloudy 1500 ft
Overcast 2100 ft
Windchill 33 °F
Dew Point 31 °F
Humidity 94%
Rainfall 0.05 in
Snow Depth Not available.
7:07 AM 4:06 PM
Waxing Crescent, 13% visible
METAR KEFK 030935Z AUTO 33007KT 2 1/2SM -SN SCT008 BKN015 OVC021 00/M01 A2976 RMK AO2 VIS 1 3/4V4 T10011011
Pressure 29.76 in
Visibility 2.5 miles
Clouds Scattered Clouds 800 ft
Mostly Cloudy 1500 ft
Overcast 2100 ft
Windchill 33 °F
Dew Point 31 °F
Humidity 94%
Rainfall 0.05 in
Snow Depth Not available.
7:07 AM 4:06 PM
Waxing Crescent, 13% visible
METAR KEFK 030935Z AUTO 33007KT 2 1/2SM -SN SCT008 BKN015 OVC021 00/M01 A2976 RMK AO2 VIS 1 3/4V4 T10011011

10-Day Weather Forecast

Almanac

Astronomy

Dec. 03, 2016 Rise Set
Actual Time
Civil Twilight
Nautical Twilight
Astronomical Twilight
Moon
Length of Visible Light
Length of Day
Tomorrow will be .
, % of the Moon is Illuminated

Today's Extremes

State Highs State Lows

Community

WunderPhotos

Upload Photos

1,955,434 photos uploaded!

WunderBlog® & News

Nearby

Air Quality

  Air Quality AQ Index Pollutant
Not available.

Snow Depth

Station Depth Elevation

Earthquake Activity

City Distance Mag. Time & Date
Minimum magnitude displayed is 2.5.

Coastal Water Temperatures

Place Temperature

Stations

Nearby Weather Stations

Station Location Temp. Windchill Dew Point Humidity Wind Precip. Elev Updated Type
                   

Watches & Warnings

There are currently no watches in effect.